XML Sitemap

This is a XML Sitemap which is supposed to be processed by search engines which follow the XML Sitemap standard like Ask.com, Bing, Google and Yahoo.
It was generated using the WordPress content management system and the Google Sitemap Generator Plugin by Arne Brachhold.
You can find more information about XML sitemaps on sitemaps.org and Google's list of sitemap programs.

URLPriorityChange frequencyLast modified (GMT)
https://htn.su/news/2017-07-31/198630-canvas-selfie-2-dlya-lyubitelej-avtoportretov.html20%Monthly2017-07-31 17:51
https://htn.su/ot-admina/2017-07-30/198628-kursy-programmirovaniya.html20%Monthly2017-07-30 15:40
https://htn.su/ot-admina/2017-07-30/198626-kursy-graficheskogo-dizajna-dlya-nachinayushhix.html20%Monthly2017-07-30 15:31
https://htn.su/news/2017-07-30/198624-polnocennyj-shlem-virtualnoj-realnosti-htc-vive-standalone.html20%Monthly2017-07-30 14:56
https://htn.su/news/2017-07-29/198621-revolyucionnye-3d-printery-ot-desktop-metal.html20%Monthly2017-07-29 11:41
https://htn.su/game/igrovye-avtomaty/2017-07-28/198616-gaminatory-onlajn.html20%Monthly2017-07-28 17:24
https://htn.su/news/2017-07-28/198618-xiaomi-mi-5x-srednego-cennogo-segmenta-na-baze-snapdragon-625.html20%Monthly2017-07-28 16:56
https://htn.su/internet/2017-07-28/198613-kursy-dizajnerov.html20%Monthly2017-07-28 16:23
https://htn.su/internet/sozdanie-sajta/2017-07-28/198610-xosting-v-polshe.html20%Monthly2017-07-28 16:08
https://htn.su/news/2017-07-27/198607-obnovlennye-monobloki-hp-pavilion.html20%Monthly2017-07-27 17:41
https://htn.su/news/2017-07-26/198605-meizu-pro-7-s-dvumya-displeyami.html20%Monthly2017-07-26 17:11
https://htn.su/news/2017-07-25/198603-moto-z2-force-edition-s-ekranom-qhd-na-baze-snapdragon-835.html20%Monthly2017-07-25 19:14
https://htn.su/news/2017-07-24/198600-byudzhetniki-ot-blu-products-r2-i-r2-lte.html20%Monthly2017-07-24 19:13
https://htn.su/ot-admina/2017-07-24/198598-domashnij-internet-i-televidenie-ot-akado.html20%Monthly2017-07-24 13:38
https://htn.su/internet/smm/2017-07-24/198596-pablboks.html20%Monthly2017-07-24 13:32
https://htn.su/news/2017-07-22/198594-byudzhetnyj-smartfon-s-zopo-speed-x-s-full-hd-i-dvojnoj-kameroj.html20%Monthly2017-07-22 18:29
https://htn.su/news/2017-07-21/198592-moshhnyj-smartfon-lg-q8.html20%Monthly2017-07-21 18:42
https://htn.su/news/2017-07-20/198590-universalnaya-igrovaya-mysh-asus-rog-pugio.html20%Monthly2017-07-20 17:30
https://htn.su/game/igrovye-sloty/2017-07-20/198588-sovremennye-igrovye-avtomaty.html20%Monthly2017-07-20 16:00
https://htn.su/news/2017-07-19/198585-byudzhetnye-fitnes-trekery-huawei-band-2-i-band-2-pro.html20%Monthly2017-07-19 19:37
https://htn.su/news/2017-07-18/198583-zashhishhennyj-smartfon-ot-vody-i-gryazi-blu-tank-xtreme-pro.html20%Monthly2017-07-18 11:08
https://htn.su/news/2017-07-17/198581-ocherednoj-byudzhetnik-panasonic-p55-max-s-bolshoj-batarej.html20%Monthly2017-07-17 18:59
https://htn.su/game/prohozhdenie-igr/2017-07-17/198542-igra-masha-i-tri-medvedya-v-odnoklassnikax-otvety-na-vse-urovni.html20%Monthly2017-10-22 09:18
https://htn.su/news/2017-07-16/198540-asus-zenfone-4-max-so-sdvoennoj-osnovnoj.html20%Monthly2017-07-16 16:41
https://htn.su/news/2017-07-16/198538-byudzhetnyj-smartfon-leagoo-kiicaa-power-s-moshhnoj-batareej-4000-mach.html20%Monthly2017-07-16 12:46
https://htn.su/news/2017-07-13/198535-lg-q6-s-displeyam-fullvision-i-processorom-snapdragon-435.html20%Monthly2017-07-13 19:21
https://htn.su/ot-admina/2017-07-12/198534-testirovanie-programmnogo-obespecheniya.html20%Monthly2017-07-12 16:49
https://htn.su/game/igrovye-sloty/2017-07-12/198532-predvzyatost-v-azartnyx-igrax.html20%Monthly2017-07-12 16:31
https://htn.su/news/2017-07-12/198529-dell-latitude-7285-gibridnyj-planshet-s-podderzhkoj-besprovodnoj-podzaryadki.html20%Monthly2017-07-12 15:24
https://htn.su/news/2017-07-11/198527-obnovlennyj-xiaomi-mi-note-2-special-edition.html20%Monthly2017-07-11 15:11
https://htn.su/news/2017-07-10/198525-smartfon-samsung-galaxy-on-max-kak-professionalnyj-fotoapparat.html20%Monthly2017-07-10 19:14
https://htn.su/news/2017-07-09/198523-starye-naushniki-budut-sluzhit-dolgo-s-pomoshhyu-xiaomi-bluetooth-audio-receiver.html20%Monthly2017-07-09 11:28
https://htn.su/news/2017-07-08/198521-enjoy-7-byudzhetnyj-vybor-ot-huawei.html20%Monthly2017-07-08 15:48
https://htn.su/news/2017-07-07/198519-novyj-c-note-s-firmennoj-obolochkoj-umi-os.html20%Monthly2017-07-07 15:54
https://htn.su/news/2017-07-06/198517-umnaya-akustika-tmall-genie-x1.html20%Monthly2017-07-06 18:37
https://htn.su/news/2017-07-05/198515-msi-optix-g24c-pervyj-igrovoj-monitor-na-24-dyujma.html20%Monthly2017-07-05 17:16
https://htn.su/news/2017-07-05/198513-byudzhetnyj-ssd-apacer-as350-panther.html20%Monthly2017-07-05 17:08
https://htn.su/news/2017-07-04/198511-hisense-h10-s-20-megapikselnoj-kameroj.html20%Monthly2017-07-04 13:44
https://htn.su/news/2017-07-03/198508-meizu-a5-proizvoditelnyj-byudzhetnik.html20%Monthly2017-07-03 19:47
https://htn.su/news/2017-07-02/198506-korporativnye-monitory-asus-be27aqlb.html20%Monthly2017-07-02 18:24
Adblock
detector